PWSweather.com
Personal Weather Stations
Station Observations
KMNZUMBR2
Covered Bridge Park, Zumbrota, MN 55992

Covered Bridge ParkZumbrota, MN 55992

Lat: 44.302051, Lon: -92.674974

Elevation: 928

Station Type: Davis Vantage Pro 2 Plus

Latest ConditionsUpdated 7:30:02 PM CDT Wednesday, Aug 15, 2018
Currently Today's Max Today's Min Today's Average
Temperature 81.9°F27.7°C 87.7°F30.9°C 65.3°F18.5°C 75.3°F24.1°C
Dew Point 69.0°F20.6°C 77.0°F25.0°C 61.7°F16.5°C 68.6°F20.3°C
Winds Calm Calm 5.8 mph -9.3 kmh - - 1.1 mph 1.8 kmh
Wind Gusts -- 10.4 mph16.7 kmh - -
Humidity 65% 100% 61% 81%
Pressure 29.82 in1009.8 mb 29.87 in1011.5 mb 29.81 in1009.5 mb -
Hour Temp Dew Point Humidity Winds Wind Gusts Pressure Precip Precip Rate Daily Precip Total
07:30 PM 81.9°F27.7°C 69.0°F20.6°C 65% Calm Calm -- 29.82 in1009.8 mb - 0.00 in0.0 mm 0.00 in0.0 mm
07:20 PM 82.4°F28.0°C 69.4°F20.8°C 65% Calm Calm 2.3 mph3.7 kmh 29.82 in1009.8 mb - 0.00 in0.0 mm 0.00 in0.0 mm
07:10 PM 82.6°F28.1°C 69.6°F20.9°C 65% 3.5 mph NNW5.6 kmh NNW 3.5 mph5.6 kmh 29.82 in1009.8 mb - 0.00 in0.0 mm 0.00 in0.0 mm
07:00 PM 82.6°F28.1°C 67.8°F19.9°C 61% Calm Calm -- 29.81 in1009.5 mb - 0.00 in0.0 mm 0.00 in0.0 mm
06:50 PM 82.8°F28.2°C 68.0°F20.0°C 61% Calm Calm -- 29.81 in1009.5 mb - 0.00 in0.0 mm 0.00 in0.0 mm
06:40 PM 83.4°F28.6°C 68.5°F20.3°C 61% Calm Calm 4.6 mph7.4 kmh 29.81 in1009.5 mb - 0.00 in0.0 mm 0.00 in0.0 mm
06:30 PM 83.7°F28.7°C 68.8°F20.4°C 61% 2.3 mph NNW3.7 kmh NNW 3.5 mph5.6 kmh 29.82 in1009.8 mb - 0.00 in0.0 mm 0.00 in0.0 mm
06:20 PM 84.2°F29.0°C 69.3°F20.7°C 61% 3.5 mph N5.6 kmh N 9.2 mph14.8 kmh 29.82 in1009.8 mb - 0.00 in0.0 mm 0.00 in0.0 mm
06:10 PM 84.2°F29.0°C 69.3°F20.7°C 61% Calm Calm 4.6 mph7.4 kmh 29.82 in1009.8 mb - 0.00 in0.0 mm 0.00 in0.0 mm
06:00 PM 85.4°F29.7°C 74.1°F23.4°C 69% 5.8 mph NNW9.3 kmh NNW 9.2 mph14.8 kmh 29.81 in1009.5 mb - 0.00 in0.0 mm 0.00 in0.0 mm
05:50 PM 84.7°F29.3°C 73.4°F23.0°C 69% 2.3 mph NW3.7 kmh NW 3.5 mph5.6 kmh 29.82 in1009.8 mb - 0.00 in0.0 mm 0.00 in0.0 mm
05:40 PM 84.8°F29.3°C 73.5°F23.1°C 69% 2.3 mph NNW3.7 kmh NNW 8.1 mph13.0 kmh 29.81 in1009.5 mb - 0.00 in0.0 mm 0.00 in0.0 mm
05:30 PM 84.5°F29.2°C 73.2°F22.9°C 69% 2.3 mph NNE3.7 kmh NNE 5.8 mph9.3 kmh 29.81 in1009.5 mb - 0.00 in0.0 mm 0.00 in0.0 mm
05:20 PM 85.1°F29.5°C 73.8°F23.2°C 69% 2.3 mph NW3.7 kmh NW 4.6 mph7.4 kmh 29.82 in1009.8 mb - 0.00 in0.0 mm 0.00 in0.0 mm
05:10 PM 84.4°F29.1°C 73.1°F22.8°C 69% 2.3 mph NW3.7 kmh NW 3.5 mph5.6 kmh 29.82 in1009.8 mb - 0.00 in0.0 mm 0.00 in0.0 mm
05:00 PM 86.5°F30.3°C 71.4°F21.9°C 61% 3.5 mph N5.6 kmh N 6.9 mph11.1 kmh 29.82 in1009.8 mb - 0.00 in0.0 mm 0.00 in0.0 mm
04:50 PM 86.6°F30.3°C 71.5°F21.9°C 61% 2.3 mph NE3.7 kmh NE 3.5 mph5.6 kmh 29.82 in1009.8 mb - 0.00 in0.0 mm 0.00 in0.0 mm
04:40 PM 86.6°F30.3°C 71.6°F22.0°C 61% 4.6 mph NW7.4 kmh NW 5.8 mph9.3 kmh 29.82 in1009.8 mb - 0.00 in0.0 mm 0.00 in0.0 mm
04:30 PM 87.2°F30.7°C 72.1°F22.3°C 61% 1.2 mph NNE1.9 kmh NNE 5.8 mph9.3 kmh 29.82 in1009.8 mb - 0.00 in0.0 mm 0.00 in0.0 mm
04:20 PM 87.7°F30.9°C 72.6°F22.6°C 61% 1.2 mph N1.9 kmh N 3.5 mph5.6 kmh 29.82 in1009.8 mb - 0.00 in0.0 mm 0.00 in0.0 mm
04:10 PM 87.4°F30.8°C 72.3°F22.4°C 61% 2.3 mph NW3.7 kmh NW 8.1 mph13.0 kmh 29.82 in1009.8 mb - 0.00 in0.0 mm 0.00 in0.0 mm
04:00 PM 86.7°F30.4°C 72.1°F22.3°C 62% 4.6 mph NNE7.4 kmh NNE 4.6 mph7.4 kmh 29.82 in1009.8 mb - 0.00 in0.0 mm 0.00 in0.0 mm
03:50 PM 86.5°F30.3°C 71.9°F22.2°C 62% 2.3 mph NW3.7 kmh NW 5.8 mph9.3 kmh 29.82 in1009.8 mb - 0.00 in0.0 mm 0.00 in0.0 mm
03:40 PM 87.2°F30.7°C 72.6°F22.6°C 62% 3.5 mph NNE5.6 kmh NNE 8.1 mph13.0 kmh 29.82 in1009.8 mb - 0.00 in0.0 mm 0.00 in0.0 mm
03:30 PM 86.4°F30.2°C 71.8°F22.1°C 62% 3.5 mph NNW5.6 kmh NNW 5.8 mph9.3 kmh 29.82 in1009.8 mb - 0.00 in0.0 mm 0.00 in0.0 mm
03:20 PM 85.7°F29.8°C 71.2°F21.8°C 62% 2.3 mph NW3.7 kmh NW 2.3 mph3.7 kmh 29.82 in1009.8 mb - 0.00 in0.0 mm 0.00 in0.0 mm
03:10 PM 86.2°F30.1°C 71.6°F22.0°C 62% 2.3 mph N3.7 kmh N 4.6 mph7.4 kmh 29.82 in1009.8 mb - 0.00 in0.0 mm 0.00 in0.0 mm
03:00 PM 84.4°F29.1°C 71.3°F21.8°C 65% Calm Calm -- 29.83 in1010.2 mb - 0.00 in0.0 mm 0.00 in0.0 mm
02:50 PM 84.8°F29.3°C 71.8°F22.1°C 65% 2.3 mph NNW3.7 kmh NNW 3.5 mph5.6 kmh 29.83 in1010.2 mb - 0.00 in0.0 mm 0.00 in0.0 mm
02:40 PM 85.5°F29.7°C 72.3°F22.4°C 65% Calm Calm -- 29.84 in1010.5 mb - 0.00 in0.0 mm 0.00 in0.0 mm
02:30 PM 85.7°F29.8°C 72.6°F22.6°C 65% Calm Calm 2.3 mph3.7 kmh 29.84 in1010.5 mb - 0.00 in0.0 mm 0.00 in0.0 mm
02:20 PM 85.3°F29.6°C 72.2°F22.3°C 65% 1.2 mph ENE1.9 kmh ENE 4.6 mph7.4 kmh 29.84 in1010.5 mb - 0.00 in0.0 mm 0.00 in0.0 mm
02:10 PM 84.4°F29.1°C 71.3°F21.8°C 65% Calm Calm -- 29.84 in1010.5 mb - 0.00 in0.0 mm 0.00 in0.0 mm
02:00 PM 85.0°F29.4°C 73.7°F23.2°C 69% 1.2 mph NNW1.9 kmh NNW -- 29.84 in1010.5 mb - 0.00 in0.0 mm 0.00 in0.0 mm
01:50 PM 85.2°F29.6°C 73.9°F23.3°C 69% 2.3 mph NNE3.7 kmh NNE 3.5 mph5.6 kmh 29.85 in1010.8 mb - 0.00 in0.0 mm 0.00 in0.0 mm
01:40 PM 85.3°F29.6°C 74.0°F23.3°C 69% Calm Calm -- 29.85 in1010.8 mb - 0.00 in0.0 mm 0.00 in0.0 mm
01:30 PM 84.5°F29.2°C 73.2°F22.9°C 69% 4.6 mph NNW7.4 kmh NNW 8.1 mph13.0 kmh 29.85 in1010.8 mb - 0.00 in0.0 mm 0.00 in0.0 mm
01:20 PM 84.3°F29.1°C 73.0°F22.8°C 69% 1.2 mph N1.9 kmh N -- 29.85 in1010.8 mb - 0.00 in0.0 mm 0.00 in0.0 mm
01:10 PM 84.7°F29.3°C 73.4°F23.0°C 69% 1.2 mph ENE1.9 kmh ENE 4.6 mph7.4 kmh 29.85 in1010.8 mb - 0.00 in0.0 mm 0.00 in0.0 mm
01:00 PM 84.6°F29.2°C 77.0°F25.0°C 78% 3.5 mph N5.6 kmh N 4.6 mph7.4 kmh 29.85 in1010.8 mb - 0.00 in0.0 mm 0.00 in0.0 mm
12:50 PM 84.2°F29.0°C 76.6°F24.8°C 78% 2.3 mph NW3.7 kmh NW 4.6 mph7.4 kmh 29.85 in1010.8 mb - 0.00 in0.0 mm 0.00 in0.0 mm
12:40 PM 82.8°F28.2°C 75.2°F24.0°C 78% 5.8 mph NE9.3 kmh NE 5.8 mph9.3 kmh 29.86 in1011.2 mb - 0.00 in0.0 mm 0.00 in0.0 mm
12:30 PM 82.0°F27.8°C 74.5°F23.6°C 78% 2.3 mph NE3.7 kmh NE 6.9 mph11.1 kmh 29.86 in1011.2 mb - 0.00 in0.0 mm 0.00 in0.0 mm
12:20 PM 82.5°F28.1°C 74.9°F23.8°C 78% 2.3 mph NNW3.7 kmh NNW 5.8 mph9.3 kmh 29.86 in1011.2 mb - 0.00 in0.0 mm 0.00 in0.0 mm
12:10 PM 81.9°F27.7°C 74.3°F23.5°C 78% 5.8 mph NNE9.3 kmh NNE 9.2 mph14.8 kmh 29.86 in1011.2 mb - 0.00 in0.0 mm 0.00 in0.0 mm
12:00 PM 80.9°F27.2°C 73.4°F23.0°C 78% 4.6 mph NW7.4 kmh NW 8.1 mph13.0 kmh 29.86 in1011.2 mb - 0.00 in0.0 mm 0.00 in0.0 mm
11:50 AM 81.2°F27.3°C 73.6°F23.1°C 78% 3.5 mph N5.6 kmh N 10.4 mph16.7 kmh 29.86 in1011.2 mb - 0.00 in0.0 mm 0.00 in0.0 mm
11:40 AM 80.8°F27.1°C 73.3°F22.9°C 78% 3.5 mph NW5.6 kmh NW 6.9 mph11.1 kmh 29.86 in1011.2 mb - 0.00 in0.0 mm 0.00 in0.0 mm
11:30 AM 80.6°F27.0°C 73.1°F22.8°C 78% 3.5 mph NW5.6 kmh NW 8.1 mph13.0 kmh 29.86 in1011.2 mb - 0.00 in0.0 mm 0.00 in0.0 mm
11:20 AM 79.8°F26.6°C 72.3°F22.4°C 78% 4.6 mph NW7.4 kmh NW 8.1 mph13.0 kmh 29.86 in1011.2 mb - 0.00 in0.0 mm 0.00 in0.0 mm
11:10 AM 79.3°F26.3°C 71.8°F22.1°C 78% 3.5 mph N5.6 kmh N 9.2 mph14.8 kmh 29.86 in1011.2 mb - 0.00 in0.0 mm 0.00 in0.0 mm
11:00 AM 78.7°F25.9°C 74.8°F23.8°C 88% 1.2 mph N1.9 kmh N 3.5 mph5.6 kmh 29.87 in1011.5 mb - 0.00 in0.0 mm 0.00 in0.0 mm
10:50 AM 78.9°F26.1°C 75.0°F23.9°C 88% 2.3 mph N3.7 kmh N 4.6 mph7.4 kmh 29.87 in1011.5 mb - 0.00 in0.0 mm 0.00 in0.0 mm
10:40 AM 78.1°F25.6°C 74.3°F23.5°C 88% 4.6 mph N7.4 kmh N 6.9 mph11.1 kmh 29.87 in1011.5 mb - 0.00 in0.0 mm 0.00 in0.0 mm
10:30 AM 77.5°F25.3°C 73.7°F23.2°C 88% 1.2 mph NNW1.9 kmh NNW -- 29.87 in1011.5 mb - 0.00 in0.0 mm 0.00 in0.0 mm
10:20 AM 76.7°F24.8°C 72.9°F22.7°C 88% Calm Calm 1.2 mph1.9 kmh 29.87 in1011.5 mb - 0.00 in0.0 mm 0.00 in0.0 mm
10:10 AM 75.8°F24.3°C 71.9°F22.2°C 88% Calm Calm -- 29.87 in1011.5 mb - 0.00 in0.0 mm 0.00 in0.0 mm
10:00 AM 74.9°F23.8°C 69.0°F20.6°C 82% 1.2 mph NNW1.9 kmh NNW 2.3 mph3.7 kmh 29.87 in1011.5 mb - 0.00 in0.0 mm 0.00 in0.0 mm
09:50 AM 74.1°F23.4°C 68.3°F20.2°C 82% Calm Calm 1.2 mph1.9 kmh 29.87 in1011.5 mb - 0.00 in0.0 mm 0.00 in0.0 mm
09:40 AM 73.5°F23.1°C 67.7°F19.8°C 82% Calm Calm -- 29.86 in1011.2 mb - 0.00 in0.0 mm 0.00 in0.0 mm
09:30 AM 72.3°F22.4°C 66.5°F19.2°C 82% Calm Calm 1.2 mph1.9 kmh 29.86 in1011.2 mb - 0.00 in0.0 mm 0.00 in0.0 mm
09:20 AM 71.7°F22.1°C 65.9°F18.8°C 82% Calm Calm -- 29.87 in1011.5 mb - 0.00 in0.0 mm 0.00 in0.0 mm
09:10 AM 71.2°F21.8°C 65.4°F18.6°C 82% Calm Calm -- 29.87 in1011.5 mb - 0.00 in0.0 mm 0.00 in0.0 mm
09:00 AM 69.8°F21.0°C 67.7°F19.8°C 93% Calm Calm 3.5 mph5.6 kmh 29.86 in1011.2 mb - 0.00 in0.0 mm 0.00 in0.0 mm
08:50 AM 68.3°F20.2°C 66.2°F19.0°C 93% Calm Calm -- 29.86 in1011.2 mb - 0.00 in0.0 mm 0.00 in0.0 mm
08:40 AM 67.8°F19.9°C 65.7°F18.7°C 93% Calm Calm -- 29.86 in1011.2 mb - 0.00 in0.0 mm 0.00 in0.0 mm
08:30 AM 67.6°F19.8°C 65.5°F18.6°C 93% Calm Calm -- 29.86 in1011.2 mb - 0.00 in0.0 mm 0.00 in0.0 mm
08:20 AM 67.5°F19.7°C 65.4°F18.6°C 93% Calm Calm -- 29.85 in1010.8 mb - 0.00 in0.0 mm 0.00 in0.0 mm
08:10 AM 67.3°F19.6°C 65.2°F18.4°C 93% Calm Calm -- 29.86 in1011.2 mb - 0.00 in0.0 mm 0.00 in0.0 mm
08:00 AM 67.1°F19.5°C 65.0°F18.3°C 93% Calm Calm -- 29.86 in1011.2 mb - 0.00 in0.0 mm 0.00 in0.0 mm
07:50 AM 66.9°F19.4°C 64.8°F18.2°C 93% Calm Calm -- 29.86 in1011.2 mb - 0.00 in0.0 mm 0.00 in0.0 mm
07:40 AM 66.6°F19.2°C 64.5°F18.1°C 93% Calm Calm -- 29.85 in1010.8 mb - 0.00 in0.0 mm 0.00 in0.0 mm
07:30 AM 66.7°F19.3°C 64.6°F18.1°C 93% Calm Calm -- 29.86 in1011.2 mb - 0.00 in0.0 mm 0.00 in0.0 mm
07:20 AM 66.6°F19.2°C 64.5°F18.1°C 93% Calm Calm -- 29.85 in1010.8 mb - 0.00 in0.0 mm 0.00 in0.0 mm
07:10 AM 66.5°F19.2°C 64.4°F18.0°C 93% Calm Calm -- 29.86 in1011.2 mb - 0.00 in0.0 mm 0.00 in0.0 mm
07:00 AM 66.4°F19.1°C 66.4°F19.1°C 100% 2.3 mph WNW3.7 kmh WNW 3.5 mph5.6 kmh 29.85 in1010.8 mb - 0.00 in0.0 mm 0.00 in0.0 mm
06:50 AM 66.4°F19.1°C 66.4°F19.1°C 100% Calm Calm 3.5 mph5.6 kmh 29.85 in1010.8 mb - 0.00 in0.0 mm 0.00 in0.0 mm
06:40 AM 66.2°F19.0°C 66.2°F19.0°C 100% Calm Calm -- 29.85 in1010.8 mb - 0.00 in0.0 mm 0.00 in0.0 mm
06:30 AM 66.2°F19.0°C 66.2°F19.0°C 100% Calm Calm -- 29.85 in1010.8 mb - 0.00 in0.0 mm 0.00 in0.0 mm
06:20 AM 66.2°F19.0°C 66.2°F19.0°C 100% Calm Calm -- 29.84 in1010.5 mb - 0.00 in0.0 mm 0.00 in0.0 mm
06:10 AM 66.2°F19.0°C 66.2°F19.0°C 100% Calm Calm -- 29.85 in1010.8 mb - 0.00 in0.0 mm 0.00 in0.0 mm
06:00 AM 66.1°F18.9°C 66.1°F18.9°C 100% Calm Calm -- 29.85 in1010.8 mb - 0.00 in0.0 mm 0.00 in0.0 mm
05:50 AM 66.2°F19.0°C 66.2°F19.0°C 100% 1.2 mph WNW1.9 kmh WNW 2.3 mph3.7 kmh 29.85 in1010.8 mb - 0.00 in0.0 mm 0.00 in0.0 mm
05:40 AM 66.1°F18.9°C 66.1°F18.9°C 100% Calm Calm -- 29.85 in1010.8 mb - 0.00 in0.0 mm 0.00 in0.0 mm
05:30 AM 66.2°F19.0°C 66.2°F19.0°C 100% Calm Calm -- 29.84 in1010.5 mb - 0.00 in0.0 mm 0.00 in0.0 mm
05:20 AM 66.3°F19.1°C 66.3°F19.1°C 100% Calm Calm -- 29.84 in1010.5 mb - 0.00 in0.0 mm 0.00 in0.0 mm
05:10 AM 66.2°F19.0°C 66.2°F19.0°C 100% Calm Calm -- 29.85 in1010.8 mb - 0.00 in0.0 mm 0.00 in0.0 mm
05:00 AM 66.2°F19.0°C 64.1°F17.8°C 93% Calm Calm -- 29.85 in1010.8 mb - 0.00 in0.0 mm 0.00 in0.0 mm
04:50 AM 66.1°F18.9°C 64.0°F17.8°C 93% Calm Calm -- 29.85 in1010.8 mb - 0.00 in0.0 mm 0.00 in0.0 mm
04:40 AM 65.8°F18.8°C 63.8°F17.7°C 93% Calm Calm -- 29.84 in1010.5 mb - 0.00 in0.0 mm 0.00 in0.0 mm
04:30 AM 65.7°F18.7°C 63.6°F17.6°C 93% Calm Calm -- 29.84 in1010.5 mb - 0.00 in0.0 mm 0.00 in0.0 mm
04:20 AM 65.7°F18.7°C 63.6°F17.6°C 93% Calm Calm -- 29.84 in1010.5 mb - 0.00 in0.0 mm 0.00 in0.0 mm
04:10 AM 65.7°F18.7°C 63.6°F17.6°C 93% Calm Calm -- 29.84 in1010.5 mb - 0.00 in0.0 mm 0.00 in0.0 mm
04:00 AM 65.6°F18.7°C 61.9°F16.6°C 88% Calm Calm -- 29.84 in1010.5 mb - 0.00 in0.0 mm 0.00 in0.0 mm
03:50 AM 65.5°F18.6°C 61.9°F16.6°C 88% Calm Calm -- 29.85 in1010.8 mb - 0.00 in0.0 mm 0.00 in0.0 mm
03:40 AM 65.3°F18.5°C 61.7°F16.5°C 88% Calm Calm -- 29.85 in1010.8 mb - 0.00 in0.0 mm 0.00 in0.0 mm
03:30 AM 65.3°F18.5°C 61.7°F16.5°C 88% Calm Calm -- 29.85 in1010.8 mb - 0.00 in0.0 mm 0.00 in0.0 mm
03:20 AM 65.3°F18.5°C 61.7°F16.5°C 88% Calm Calm -- 29.85 in1010.8 mb - 0.00 in0.0 mm 0.00 in0.0 mm
03:10 AM 65.6°F18.7°C 61.9°F16.6°C 88% Calm Calm -- 29.85 in1010.8 mb - 0.00 in0.0 mm 0.00 in0.0 mm
03:00 AM 65.6°F18.7°C 63.5°F17.5°C 93% Calm Calm -- 29.85 in1010.8 mb - 0.00 in0.0 mm 0.00 in0.0 mm
02:50 AM 65.8°F18.8°C 63.7°F17.6°C 93% Calm Calm -- 29.84 in1010.5 mb - 0.00 in0.0 mm 0.00 in0.0 mm
02:40 AM 66.1°F18.9°C 64.0°F17.8°C 93% Calm Calm -- 29.84 in1010.5 mb - 0.00 in0.0 mm 0.00 in0.0 mm
02:30 AM 66.2°F19.0°C 64.1°F17.8°C 93% Calm Calm -- 29.84 in1010.5 mb - 0.00 in0.0 mm 0.00 in0.0 mm
02:20 AM 66.4°F19.1°C 64.3°F17.9°C 93% Calm Calm -- 29.84 in1010.5 mb - 0.00 in0.0 mm 0.00 in0.0 mm
02:10 AM 66.7°F19.3°C 64.6°F18.1°C 93% Calm Calm -- 29.84 in1010.5 mb - 0.00 in0.0 mm 0.00 in0.0 mm
02:00 AM 67.0°F19.4°C 64.9°F18.3°C 93% Calm Calm -- 29.84 in1010.5 mb - 0.00 in0.0 mm 0.00 in0.0 mm
01:50 AM 67.0°F19.4°C 64.9°F18.3°C 93% Calm Calm -- 29.84 in1010.5 mb - 0.00 in0.0 mm 0.00 in0.0 mm
01:40 AM 67.3°F19.6°C 65.2°F18.4°C 93% Calm Calm -- 29.84 in1010.5 mb - 0.00 in0.0 mm 0.00 in0.0 mm
01:30 AM 67.4°F19.7°C 65.3°F18.5°C 93% Calm Calm -- 29.84 in1010.5 mb - 0.00 in0.0 mm 0.00 in0.0 mm
01:20 AM 67.8°F19.9°C 65.7°F18.7°C 93% Calm Calm -- 29.84 in1010.5 mb - 0.00 in0.0 mm 0.00 in0.0 mm
01:10 AM 68.1°F20.1°C 66.0°F18.9°C 93% Calm Calm -- 29.84 in1010.5 mb - 0.00 in0.0 mm 0.00 in0.0 mm
01:00 AM 68.6°F20.3°C 64.9°F18.3°C 88% Calm Calm -- 29.84 in1010.5 mb - 0.00 in0.0 mm 0.00 in0.0 mm
12:50 AM 68.9°F20.5°C 65.2°F18.4°C 88% Calm Calm -- 29.84 in1010.5 mb - 0.00 in0.0 mm 0.00 in0.0 mm
12:40 AM 69.2°F20.7°C 65.5°F18.6°C 88% Calm Calm -- 29.84 in1010.5 mb - 0.00 in0.0 mm 0.00 in0.0 mm
12:30 AM 69.6°F20.9°C 65.9°F18.8°C 88% Calm Calm -- 29.84 in1010.5 mb - 0.00 in0.0 mm 0.00 in0.0 mm
12:20 AM 69.9°F21.1°C 66.2°F19.0°C 88% Calm Calm -- 29.84 in1010.5 mb - 0.00 in0.0 mm 0.00 in0.0 mm
12:10 AM 70.3°F21.3°C 66.6°F19.2°C 88% Calm Calm -- 29.84 in1010.5 mb - 0.00 in0.0 mm 0.00 in0.0 mm
12:00 AM 70.7°F21.5°C 64.9°F18.3°C 82% Calm Calm -- 29.84 in1010.5 mb - 0.00 in0.0 mm 0.00 in0.0 mm